createdAt,value
2023-04-17T00:00:24.233Z,12.29
2023-04-17T00:01:27.151Z,12.29
2023-04-17T00:02:31.153Z,12.34
2023-04-17T00:03:34.252Z,12.31
2023-04-17T00:04:38.565Z,12.30
2023-04-17T00:05:41.537Z,12.26
2023-04-17T00:06:47.179Z,12.21
2023-04-17T00:07:50.508Z,12.23
2023-04-17T00:08:53.396Z,12.21
2023-04-17T00:09:56.268Z,12.19
2023-04-17T00:11:07.260Z,12.23
2023-04-17T00:12:11.119Z,12.26
2023-04-17T00:13:13.947Z,12.23
2023-04-17T00:14:16.955Z,12.24
2023-04-17T00:15:19.849Z,12.20
2023-04-17T00:16:23.130Z,12.20
2023-04-17T00:17:26.050Z,12.20
2023-04-17T00:18:28.888Z,12.20
2023-04-17T00:19:31.761Z,12.16
2023-04-17T00:20:34.593Z,12.16
2023-04-17T00:21:37.459Z,12.20
2023-04-17T00:22:41.027Z,12.19
2023-04-17T00:23:43.922Z,12.21
2023-04-17T00:24:46.787Z,12.23
2023-04-17T00:25:49.590Z,12.21
2023-04-17T00:26:52.503Z,12.16
2023-04-17T00:27:55.312Z,12.16
2023-04-17T00:28:58.123Z,12.14
2023-04-17T00:30:01.079Z,12.14
2023-04-17T00:31:03.957Z,12.13
2023-04-17T00:32:07.025Z,12.14
2023-04-17T00:33:10.023Z,12.10
2023-04-17T00:34:12.910Z,12.07
2023-04-17T00:35:16.046Z,12.07
2023-04-17T00:36:18.922Z,12.09
2023-04-17T00:37:21.789Z,12.09
2023-04-17T00:38:24.654Z,12.07
2023-04-17T00:39:27.711Z,12.09
2023-04-17T00:40:30.522Z,12.04
2023-04-17T00:41:33.425Z,12.03
2023-04-17T00:42:36.283Z,11.99
2023-04-17T00:43:39.924Z,11.97
2023-04-17T00:44:42.854Z,11.96
2023-04-17T00:45:48.104Z,11.96
2023-04-17T00:46:51.034Z,11.94
2023-04-17T00:47:54.697Z,11.99
2023-04-17T00:48:57.718Z,11.97
2023-04-17T00:50:00.652Z,11.94
2023-04-17T00:51:04.528Z,11.92
2023-04-17T00:52:07.638Z,11.97
2023-04-17T00:53:10.488Z,11.92
2023-04-17T00:54:13.937Z,11.92
2023-04-17T00:55:17.257Z,11.83
2023-04-17T00:56:20.334Z,11.86
2023-04-17T00:57:25.874Z,11.85
2023-04-17T00:58:29.146Z,11.80
2023-04-17T00:59:33.978Z,11.78
2023-04-17T01:00:36.984Z,11.76
2023-04-17T01:01:39.930Z,11.76
2023-04-17T01:02:42.946Z,11.78
2023-04-17T01:03:46.429Z,11.79
2023-04-17T01:04:49.316Z,11.79
2023-04-17T01:05:53.637Z,11.79
2023-04-17T01:06:57.060Z,11.78
2023-04-17T01:08:00.107Z,11.79
2023-04-17T01:09:03.597Z,11.82
2023-04-17T01:10:07.661Z,11.78
2023-04-17T01:11:11.589Z,11.78
2023-04-17T01:12:25.759Z,11.80
2023-04-17T01:13:28.697Z,11.82
2023-04-17T01:14:31.581Z,11.76
2023-04-17T01:15:35.220Z,11.80
2023-04-17T01:16:40.479Z,11.75
2023-04-17T01:17:43.667Z,11.79
2023-04-17T01:18:47.807Z,11.80
2023-04-17T01:19:51.276Z,11.79
2023-04-17T01:20:54.113Z,11.78
2023-04-17T01:21:57.218Z,11.80
2023-04-17T01:23:00.768Z,11.75
2023-04-17T01:24:04.722Z,11.72
2023-04-17T01:25:07.844Z,11.78
2023-04-17T01:26:10.716Z,11.76
2023-04-17T01:27:14.971Z,11.72
2023-04-17T01:28:17.800Z,11.76
2023-04-17T01:29:20.680Z,11.78
2023-04-17T01:30:23.810Z,11.78
2023-04-17T01:31:28.319Z,11.78
2023-04-17T01:32:31.168Z,11.76
2023-04-17T01:33:34.096Z,11.79
2023-04-17T01:34:37.672Z,11.79
2023-04-17T01:35:40.641Z,11.78
2023-04-17T01:36:44.236Z,11.75
2023-04-17T01:37:47.143Z,11.75
2023-04-17T01:38:50.029Z,11.76
2023-04-17T01:39:52.861Z,11.78
2023-04-17T01:40:55.678Z,11.79
2023-04-17T01:41:58.609Z,11.78
2023-04-17T01:43:02.319Z,11.79
2023-04-17T01:44:05.224Z,11.76
2023-04-17T01:45:08.702Z,11.80
2023-04-17T01:46:12.072Z,11.79
2023-04-17T01:47:15.133Z,11.82
2023-04-17T01:48:17.985Z,11.82
2023-04-17T01:49:21.020Z,11.82
2023-04-17T01:50:23.923Z,11.86
2023-04-17T01:51:27.221Z,11.83
2023-04-17T01:52:30.126Z,11.86
2023-04-17T01:53:34.399Z,11.87
2023-04-17T01:54:37.241Z,11.86
2023-04-17T01:55:40.103Z,11.80
2023-04-17T01:56:43.653Z,11.79
2023-04-17T01:57:46.544Z,11.79
2023-04-17T01:58:49.434Z,11.79
2023-04-17T01:59:52.277Z,11.78
2023-04-17T02:00:55.173Z,11.80
2023-04-17T02:01:58.533Z,11.80
2023-04-17T02:03:01.607Z,11.85
2023-04-17T02:04:04.784Z,11.82
2023-04-17T02:05:08.205Z,11.86
2023-04-17T02:06:11.274Z,11.85
2023-04-17T02:07:14.146Z,11.83
2023-04-17T02:08:17.388Z,11.85
2023-04-17T02:09:20.429Z,11.83
2023-04-17T02:10:23.312Z,11.85
2023-04-17T02:11:26.196Z,11.82
2023-04-17T02:12:29.061Z,11.85
2023-04-17T02:13:32.067Z,11.86
2023-04-17T02:14:34.957Z,11.87
2023-04-17T02:15:41.226Z,11.85
2023-04-17T02:16:46.847Z,11.87
2023-04-17T02:17:49.772Z,11.89
2023-04-17T02:18:53.046Z,11.90
2023-04-17T02:19:55.910Z,11.87
2023-04-17T02:20:58.785Z,11.87
2023-04-17T02:22:01.619Z,11.78
2023-04-17T02:23:07.333Z,11.79
2023-04-17T02:24:10.177Z,11.83
2023-04-17T02:25:13.034Z,11.82
2023-04-17T02:26:16.363Z,11.83
2023-04-17T02:27:19.268Z,11.80
2023-04-17T02:28:22.119Z,11.80
2023-04-17T02:29:24.964Z,11.80
2023-04-17T02:30:28.653Z,11.83
2023-04-17T02:31:32.270Z,11.80
2023-04-17T02:32:35.484Z,11.83
2023-04-17T02:33:38.793Z,11.86
2023-04-17T02:34:41.991Z,11.83
2023-04-17T02:35:44.836Z,11.87
2023-04-17T02:36:47.712Z,11.82
2023-04-17T02:37:50.704Z,11.80
2023-04-17T02:38:53.542Z,11.79
2023-04-17T02:39:57.029Z,11.79
2023-04-17T02:41:00.727Z,11.79
2023-04-17T02:42:04.315Z,11.79
2023-04-17T02:43:07.167Z,11.76
2023-04-17T02:44:10.018Z,11.75
2023-04-17T02:45:12.972Z,11.75
2023-04-17T02:46:15.824Z,11.63
2023-04-17T02:47:18.706Z,11.62
2023-04-17T02:48:21.741Z,11.63
2023-04-17T02:49:24.619Z,11.66
2023-04-17T02:50:27.640Z,11.65
2023-04-17T02:51:30.460Z,11.61
2023-04-17T02:52:34.627Z,11.59
2023-04-17T02:53:37.456Z,11.62
2023-04-17T02:54:40.337Z,11.61
2023-04-17T02:55:43.206Z,11.61
2023-04-17T02:56:46.039Z,11.65
2023-04-17T02:57:48.859Z,11.62
2023-04-17T02:58:51.724Z,11.65
2023-04-17T02:59:54.587Z,11.63
2023-04-17T03:01:04.876Z,11.66
2023-04-17T03:02:08.396Z,11.62
2023-04-17T03:03:11.381Z,11.63
2023-04-17T03:04:14.471Z,11.63
2023-04-17T03:05:19.346Z,11.66
2023-04-17T03:06:22.997Z,11.69
2023-04-17T03:07:28.713Z,11.71
2023-04-17T03:08:36.769Z,11.69
2023-04-17T03:09:40.041Z,11.69
2023-04-17T03:10:43.808Z,11.72
2023-04-17T03:11:46.650Z,11.73
2023-04-17T03:12:49.483Z,11.75
2023-04-17T03:13:52.340Z,11.71
2023-04-17T03:14:55.276Z,11.71
2023-04-17T03:15:58.182Z,11.69
2023-04-17T03:17:01.107Z,11.69
2023-04-17T03:18:03.958Z,11.63
2023-04-17T03:19:06.872Z,11.69
2023-04-17T03:20:10.290Z,11.66
2023-04-17T03:21:13.184Z,11.71
2023-04-17T03:22:16.071Z,11.72
2023-04-17T03:23:18.850Z,11.69
2023-04-17T03:24:21.792Z,11.71
2023-04-17T03:25:24.675Z,11.68
2023-04-17T03:26:27.795Z,11.72
2023-04-17T03:27:30.631Z,11.72
2023-04-17T03:28:33.743Z,11.72
2023-04-17T03:29:36.804Z,11.73
2023-04-17T03:30:39.650Z,11.76
2023-04-17T03:31:42.515Z,11.73
2023-04-17T03:32:45.516Z,11.69
2023-04-17T03:33:48.497Z,11.68
2023-04-17T03:34:51.345Z,11.66
2023-04-17T03:35:54.140Z,11.65
2023-04-17T03:36:57.130Z,11.63
2023-04-17T03:38:00.073Z,11.63
2023-04-17T03:39:02.966Z,11.65
2023-04-17T03:40:07.814Z,11.66
2023-04-17T03:41:11.540Z,11.65
2023-04-17T03:42:15.848Z,11.66
2023-04-17T03:43:18.762Z,11.62
2023-04-17T03:44:21.626Z,11.66
2023-04-17T03:45:24.539Z,11.61
2023-04-17T03:46:27.490Z,11.57
2023-04-17T03:47:31.742Z,11.50
2023-04-17T03:48:34.701Z,11.51
2023-04-17T03:49:37.516Z,11.54
2023-04-17T03:50:40.447Z,11.48
2023-04-17T03:51:44.067Z,11.51
2023-04-17T03:52:46.968Z,11.50
2023-04-17T03:53:49.838Z,11.51
2023-04-17T03:54:53.034Z,11.46
2023-04-17T03:55:55.963Z,11.45
2023-04-17T03:56:58.863Z,11.44
2023-04-17T03:58:01.774Z,11.41
2023-04-17T03:59:07.998Z,11.38
2023-04-17T04:00:15.636Z,11.27
2023-04-17T04:01:18.556Z,11.30
2023-04-17T04:02:21.742Z,11.32
2023-04-17T04:03:24.941Z,11.30
2023-04-17T04:04:28.196Z,11.30
2023-04-17T04:05:31.254Z,11.31
2023-04-17T04:06:34.084Z,11.28
2023-04-17T04:07:37.027Z,11.30
2023-04-17T04:08:39.948Z,11.30
2023-04-17T04:09:42.928Z,11.27
2023-04-17T04:10:46.285Z,11.31
2023-04-17T04:11:49.167Z,11.34
2023-04-17T04:12:51.999Z,11.31
2023-04-17T04:13:54.864Z,11.34
2023-04-17T04:14:57.780Z,11.35
2023-04-17T04:16:00.793Z,11.34
2023-04-17T04:17:03.730Z,11.35
2023-04-17T04:18:07.097Z,11.32
2023-04-17T04:19:10.710Z,11.36
2023-04-17T04:20:14.449Z,11.34
2023-04-17T04:21:17.302Z,11.36
2023-04-17T04:22:22.610Z,11.38
2023-04-17T04:23:26.520Z,11.36
2023-04-17T04:24:29.717Z,11.38
2023-04-17T04:25:33.696Z,11.42
2023-04-17T04:26:36.515Z,11.42
2023-04-17T04:27:40.945Z,11.42
2023-04-17T04:28:44.734Z,11.46
2023-04-17T04:29:50.089Z,11.50
2023-04-17T04:30:54.305Z,11.46
2023-04-17T04:31:57.462Z,11.46
2023-04-17T04:33:02.367Z,11.45
2023-04-17T04:34:05.268Z,11.46
2023-04-17T04:35:08.871Z,11.48
2023-04-17T04:36:15.089Z,11.51
2023-04-17T04:37:17.923Z,11.46
2023-04-17T04:38:21.419Z,11.45
2023-04-17T04:39:24.354Z,11.45
2023-04-17T04:40:27.236Z,11.48
2023-04-17T04:41:31.171Z,11.46
2023-04-17T04:42:34.232Z,11.52
2023-04-17T04:43:37.995Z,11.54
2023-04-17T04:44:40.795Z,11.59
2023-04-17T04:45:43.613Z,11.59
2023-04-17T04:46:47.227Z,11.61
2023-04-17T04:47:50.147Z,11.62
2023-04-17T04:48:53.042Z,11.65
2023-04-17T04:49:55.859Z,11.57
2023-04-17T04:50:58.843Z,11.57
2023-04-17T04:52:01.716Z,11.57
2023-04-17T04:53:04.667Z,11.59
2023-04-17T04:54:07.665Z,11.61
2023-04-17T04:55:10.793Z,11.62
2023-04-17T04:56:13.637Z,11.68
2023-04-17T04:57:16.528Z,11.69
2023-04-17T04:58:19.380Z,11.68
2023-04-17T04:59:22.333Z,11.71
2023-04-17T05:00:25.163Z,11.65
2023-04-17T05:01:29.211Z,11.65
2023-04-17T05:02:32.307Z,11.65
2023-04-17T05:03:35.433Z,11.66
2023-04-17T05:04:38.487Z,11.62
2023-04-17T05:05:42.414Z,11.62
2023-04-17T05:06:45.286Z,11.61
2023-04-17T05:07:48.146Z,11.61
2023-04-17T05:08:51.101Z,11.57
2023-04-17T05:09:53.925Z,11.51
2023-04-17T05:10:57.009Z,11.55
2023-04-17T05:11:59.994Z,11.57
2023-04-17T05:13:02.903Z,11.51
2023-04-17T05:14:06.002Z,11.57
2023-04-17T05:15:09.388Z,11.55
2023-04-17T05:16:12.295Z,11.57
2023-04-17T05:17:15.205Z,11.58
2023-04-17T05:18:18.081Z,11.61
2023-04-17T05:19:20.867Z,11.61
2023-04-17T05:20:27.618Z,11.59
2023-04-17T05:21:31.246Z,11.54
2023-04-17T05:22:34.186Z,11.52
2023-04-17T05:23:36.998Z,11.52
2023-04-17T05:24:39.827Z,11.55
2023-04-17T05:25:42.731Z,11.59
2023-04-17T05:26:45.631Z,11.57
2023-04-17T05:27:48.454Z,11.62
2023-04-17T05:28:51.644Z,11.59
2023-04-17T05:29:54.502Z,11.55
2023-04-17T05:30:58.261Z,11.55
2023-04-17T05:32:01.334Z,11.58
2023-04-17T05:33:04.383Z,11.59
2023-04-17T05:34:07.437Z,11.61
2023-04-17T05:35:10.499Z,11.59
2023-04-17T05:36:13.347Z,11.58
2023-04-17T05:37:16.214Z,11.62
2023-04-17T05:38:19.437Z,11.58
2023-04-17T05:39:23.046Z,11.54
2023-04-17T05:40:26.087Z,11.52
2023-04-17T05:41:31.972Z,11.51
2023-04-17T05:42:37.801Z,11.52
2023-04-17T05:43:40.765Z,11.57
2023-04-17T05:44:43.714Z,11.54
2023-04-17T05:45:46.955Z,11.54
2023-04-17T05:46:49.851Z,11.57
2023-04-17T05:47:52.785Z,11.57
2023-04-17T05:48:55.607Z,11.58
2023-04-17T05:50:01.356Z,11.63
2023-04-17T05:51:04.382Z,11.61
2023-04-17T05:52:07.738Z,11.65
2023-04-17T05:53:10.652Z,11.63
2023-04-17T05:54:13.481Z,11.63
2023-04-17T05:55:16.725Z,11.65
2023-04-17T05:56:19.788Z,11.68
2023-04-17T05:57:22.713Z,11.71
2023-04-17T05:58:27.032Z,11.72
2023-04-17T05:59:29.975Z,11.75
2023-04-17T06:00:32.848Z,11.76
2023-04-17T06:01:37.206Z,11.78
2023-04-17T06:02:42.434Z,11.78
2023-04-17T06:03:45.537Z,11.82
2023-04-17T06:04:48.756Z,11.85
2023-04-17T06:05:51.902Z,11.87
2023-04-17T06:06:54.905Z,11.89
2023-04-17T06:07:57.930Z,11.83
2023-04-17T06:09:00.823Z,11.87
2023-04-17T06:10:04.109Z,11.83
2023-04-17T06:11:07.525Z,11.87
2023-04-17T06:12:17.074Z,11.89
2023-04-17T06:13:20.434Z,11.93
2023-04-17T06:14:23.478Z,11.93
2023-04-17T06:15:27.799Z,11.99
2023-04-17T06:16:30.845Z,11.97
2023-04-17T06:17:33.796Z,12.01
2023-04-17T06:18:36.815Z,12.04
2023-04-17T06:19:40.014Z,12.07
2023-04-17T06:20:43.194Z,12.13
2023-04-17T06:21:46.178Z,12.14
2023-04-17T06:22:49.111Z,12.16
2023-04-17T06:23:51.927Z,12.20
2023-04-17T06:24:54.817Z,12.17
2023-04-17T06:25:58.093Z,12.21
2023-04-17T06:27:01.043Z,12.21
2023-04-17T06:28:03.966Z,12.21
2023-04-17T06:29:06.819Z,12.29
2023-04-17T06:30:10.201Z,12.34
2023-04-17T06:31:13.557Z,12.38
2023-04-17T06:32:16.689Z,12.42
2023-04-17T06:33:19.505Z,12.48
2023-04-17T06:34:23.024Z,12.54
2023-04-17T06:35:25.870Z,12.59
2023-04-17T06:36:29.095Z,12.59
2023-04-17T06:37:31.989Z,12.67
2023-04-17T06:38:34.889Z,12.68
2023-04-17T06:39:38.094Z,12.75
2023-04-17T06:40:41.182Z,12.78
2023-04-17T06:41:44.214Z,12.84
2023-04-17T06:42:47.237Z,12.85
2023-04-17T06:43:50.091Z,12.89
2023-04-17T06:44:53.020Z,12.91
2023-04-17T06:45:56.419Z,12.88
2023-04-17T06:47:01.758Z,12.96
2023-04-17T06:48:06.237Z,12.93
2023-04-17T06:49:09.392Z,12.98
2023-04-17T06:50:12.364Z,13.02
2023-04-17T06:51:15.394Z,13.03
2023-04-17T06:52:21.424Z,13.08
2023-04-17T06:53:24.251Z,13.08
2023-04-17T06:54:27.404Z,13.10
2023-04-17T06:55:30.287Z,13.13
2023-04-17T06:56:33.240Z,13.17
2023-04-17T06:57:36.138Z,13.19
2023-04-17T06:58:45.189Z,13.19
2023-04-17T06:59:48.046Z,13.19
2023-04-17T07:00:50.858Z,13.24
2023-04-17T07:01:54.132Z,13.32
2023-04-17T07:02:57.350Z,13.35
2023-04-17T07:04:00.434Z,13.40
2023-04-17T07:05:06.670Z,13.42
2023-04-17T07:06:10.670Z,13.44
2023-04-17T07:07:13.631Z,13.47
2023-04-17T07:08:17.226Z,13.50
2023-04-17T07:09:20.299Z,13.50
2023-04-17T07:10:23.334Z,13.53
2023-04-17T07:11:26.565Z,13.58
2023-04-17T07:12:29.510Z,13.64
2023-04-17T07:13:35.507Z,13.66
2023-04-17T07:14:39.592Z,13.71
2023-04-17T07:15:42.600Z,13.73
2023-04-17T07:16:45.855Z,13.79
2023-04-17T07:17:48.917Z,13.89
2023-04-17T07:18:53.082Z,13.94
2023-04-17T07:19:56.377Z,13.98
2023-04-17T07:20:59.353Z,14.02
2023-04-17T07:22:03.310Z,14.05
2023-04-17T07:23:06.215Z,14.08
2023-04-17T07:24:09.568Z,14.09
2023-04-17T07:25:12.721Z,14.19
2023-04-17T07:26:15.594Z,14.26
2023-04-17T07:27:18.776Z,14.30
2023-04-17T07:28:21.923Z,14.37
2023-04-17T07:29:24.838Z,14.42
2023-04-17T07:30:27.949Z,14.49
2023-04-17T07:31:30.891Z,14.56
2023-04-17T07:32:33.982Z,14.59
2023-04-17T07:33:40.346Z,14.64
2023-04-17T07:34:44.376Z,14.69
2023-04-17T07:35:47.289Z,14.77
2023-04-17T07:36:51.515Z,14.83
2023-04-17T07:37:54.838Z,14.87
2023-04-17T07:38:58.167Z,14.93
2023-04-17T07:40:01.249Z,15.00
2023-04-17T07:41:04.128Z,15.08
2023-04-17T07:42:10.061Z,15.15
2023-04-17T07:43:13.025Z,15.22
2023-04-17T07:44:17.688Z,15.31
2023-04-17T07:45:20.755Z,15.41
2023-04-17T07:46:23.747Z,15.49
2023-04-17T07:47:26.937Z,15.59
2023-04-17T07:48:30.041Z,15.66
2023-04-17T07:49:32.930Z,15.79
2023-04-17T07:50:35.844Z,15.90
2023-04-17T07:51:39.692Z,16.06
2023-04-17T07:52:42.524Z,16.16
2023-04-17T07:53:45.414Z,16.28
2023-04-17T07:54:48.291Z,16.40
2023-04-17T07:55:51.363Z,16.51
2023-04-17T07:56:54.238Z,16.61
2023-04-17T07:57:57.197Z,16.73
2023-04-17T07:59:01.306Z,16.80
2023-04-17T08:00:05.856Z,16.90
2023-04-17T08:01:09.144Z,16.95
2023-04-17T08:02:12.468Z,17.02
2023-04-17T08:03:15.853Z,17.10
2023-04-17T08:04:19.019Z,17.19
2023-04-17T08:05:22.359Z,17.26
2023-04-17T08:06:25.355Z,17.34
2023-04-17T08:07:28.353Z,17.43
2023-04-17T08:08:31.486Z,17.47
2023-04-17T08:09:34.513Z,17.50
2023-04-17T08:10:37.683Z,17.57
2023-04-17T08:11:53.458Z,17.65
2023-04-17T08:12:59.448Z,17.73
2023-04-17T08:14:02.577Z,17.79
2023-04-17T08:15:05.933Z,17.79
2023-04-17T08:16:10.047Z,17.86
2023-04-17T08:17:13.056Z,17.91
2023-04-17T08:18:16.133Z,17.95
2023-04-17T08:19:19.063Z,17.96
2023-04-17T08:20:22.181Z,17.94
2023-04-17T08:21:25.219Z,17.88
2023-04-17T08:22:29.941Z,17.95
2023-04-17T08:23:32.943Z,17.96
2023-04-17T08:24:35.841Z,17.98
2023-04-17T08:25:38.738Z,17.99
2023-04-17T08:26:41.996Z,18.01
2023-04-17T08:27:45.085Z,18.06
2023-04-17T08:28:48.412Z,18.12
2023-04-17T08:29:51.299Z,18.17
2023-04-17T08:30:54.200Z,18.25
2023-04-17T08:32:10.735Z,18.30
2023-04-17T08:33:18.656Z,18.40
2023-04-17T08:34:22.693Z,18.52
2023-04-17T08:35:25.739Z,18.59
2023-04-17T08:36:28.939Z,18.67
2023-04-17T08:37:33.483Z,18.74
2023-04-17T08:38:36.780Z,18.84
2023-04-17T08:39:39.833Z,18.94
2023-04-17T08:40:53.149Z,19.00
2023-04-17T08:42:02.116Z,19.10
2023-04-17T08:43:06.535Z,19.15
2023-04-17T08:44:09.441Z,19.21
2023-04-17T08:45:14.041Z,19.26
2023-04-17T08:46:18.161Z,19.25
2023-04-17T08:47:21.148Z,19.25
2023-04-17T08:48:25.668Z,19.15
2023-04-17T08:49:30.722Z,19.14
2023-04-17T08:50:34.158Z,19.07
2023-04-17T08:51:37.254Z,19.01
2023-04-17T08:52:44.348Z,18.97
2023-04-17T08:53:47.380Z,19.00
2023-04-17T08:54:51.314Z,19.04
2023-04-17T08:55:54.445Z,19.00
2023-04-17T08:56:58.843Z,19.00
2023-04-17T08:58:07.454Z,19.04
2023-04-17T08:59:10.455Z,19.10
2023-04-17T09:00:14.331Z,19.16
2023-04-17T09:01:17.840Z,19.18
2023-04-17T09:02:21.042Z,19.19
2023-04-17T09:03:24.462Z,19.16
2023-04-17T09:04:41.994Z,19.16
2023-04-17T09:05:47.380Z,19.16
2023-04-17T09:06:55.496Z,19.18
2023-04-17T09:08:07.313Z,19.23
2023-04-17T09:09:10.383Z,19.26
2023-04-17T09:10:13.503Z,19.31
2023-04-17T09:11:19.557Z,19.43
2023-04-17T09:12:24.969Z,19.50
2023-04-17T09:13:28.666Z,19.56
2023-04-17T09:14:32.854Z,19.65
2023-04-17T09:15:37.161Z,19.73
2023-04-17T09:16:55.959Z,19.79
2023-04-17T09:17:58.835Z,19.81
2023-04-17T09:19:11.234Z,19.91
2023-04-17T09:20:14.391Z,19.93
2023-04-17T09:21:22.449Z,19.80
2023-04-17T09:22:25.362Z,19.74
2023-04-17T09:23:33.596Z,19.73
2023-04-17T09:24:37.961Z,19.65
2023-04-17T09:25:41.116Z,19.62
2023-04-17T09:26:46.460Z,19.52
2023-04-17T09:27:49.369Z,19.48
2023-04-17T09:29:09.247Z,19.46
2023-04-17T09:30:12.550Z,19.42
2023-04-17T09:31:18.475Z,19.48
2023-04-17T09:32:21.374Z,19.43
2023-04-17T09:33:24.267Z,19.49
2023-04-17T09:34:27.234Z,19.41
2023-04-17T09:35:30.217Z,19.39
2023-04-17T09:36:34.761Z,19.42
2023-04-17T09:37:57.676Z,19.52
2023-04-17T09:39:03.875Z,19.45
2023-04-17T09:40:10.217Z,19.52
2023-04-17T09:41:27.113Z,19.49
2023-04-17T09:42:30.120Z,19.52
2023-04-17T09:43:45.392Z,19.56
2023-04-17T09:44:48.643Z,19.65
2023-04-17T09:45:53.640Z,19.70
2023-04-17T09:46:57.390Z,19.80
2023-04-17T09:48:02.342Z,19.90
2023-04-17T09:49:35.222Z,20.07
2023-04-17T09:50:39.138Z,20.17
2023-04-17T09:51:42.559Z,20.21
2023-04-17T09:52:48.715Z,20.22
2023-04-17T09:53:52.849Z,20.21
2023-04-17T09:54:56.583Z,20.16
2023-04-17T09:56:03.006Z,20.16
2023-04-17T09:57:09.612Z,20.20
2023-04-17T09:58:12.900Z,20.21
2023-04-17T09:59:17.412Z,20.31
2023-04-17T10:00:22.300Z,20.31
2023-04-17T10:01:27.401Z,20.35
2023-04-17T10:02:30.618Z,20.42
2023-04-17T10:03:37.240Z,20.48
2023-04-17T10:04:45.087Z,20.55
2023-04-17T10:05:48.365Z,20.61
2023-04-17T10:06:51.706Z,20.61
2023-04-17T10:07:54.896Z,20.61
2023-04-17T10:08:57.996Z,20.58
2023-04-17T10:10:02.417Z,20.49
2023-04-17T10:11:09.791Z,20.41
2023-04-17T10:12:16.684Z,20.35
2023-04-17T10:13:22.492Z,20.31
2023-04-17T10:14:31.552Z,20.32
2023-04-17T10:15:35.374Z,20.34
2023-04-17T10:16:39.910Z,20.38
2023-04-17T10:17:42.946Z,20.42
2023-04-17T10:18:45.949Z,20.38
2023-04-17T10:19:48.783Z,20.41
2023-04-17T10:20:54.439Z,20.45
2023-04-17T10:22:21.914Z,20.47
2023-04-17T10:23:35.748Z,20.34
2023-04-17T10:24:38.565Z,20.29
2023-04-17T10:25:41.740Z,20.34
2023-04-17T10:26:44.732Z,20.34
2023-04-17T10:27:52.459Z,20.34
2023-04-17T10:28:56.986Z,20.34
2023-04-17T10:30:02.043Z,20.34
2023-04-17T10:31:05.057Z,20.31
2023-04-17T10:32:11.325Z,20.31
2023-04-17T10:33:14.181Z,20.34
2023-04-17T10:34:36.966Z,20.29
2023-04-17T10:35:40.156Z,20.35
2023-04-17T10:36:42.955Z,20.37
2023-04-17T10:37:48.633Z,20.38
2023-04-17T10:38:51.450Z,20.41
2023-04-17T10:39:58.023Z,20.34
2023-04-17T10:41:04.578Z,20.28
2023-04-17T10:42:07.940Z,20.29
2023-04-17T10:43:19.053Z,20.25
2023-04-17T10:44:22.191Z,20.18
2023-04-17T10:45:25.061Z,20.13
2023-04-17T10:46:28.068Z,20.11
2023-04-17T10:47:36.997Z,19.98
2023-04-17T10:48:46.851Z,19.94
2023-04-17T10:49:56.485Z,19.96
2023-04-17T10:50:59.478Z,19.91
2023-04-17T10:52:02.366Z,19.91
2023-04-17T10:53:05.902Z,19.90
2023-04-17T10:54:11.622Z,19.84
2023-04-17T10:55:23.234Z,19.83
2023-04-17T10:56:33.757Z,19.84
2023-04-17T10:57:59.445Z,19.87
2023-04-17T10:59:02.497Z,19.84
2023-04-17T11:00:15.355Z,19.84
2023-04-17T11:01:18.237Z,19.83
2023-04-17T11:02:35.072Z,19.80
2023-04-17T11:03:39.636Z,19.81
2023-04-17T11:04:42.624Z,19.86
2023-04-17T11:05:47.254Z,19.79
2023-04-17T11:06:50.933Z,19.77
2023-04-17T11:07:54.085Z,19.70
2023-04-17T11:09:00.752Z,19.70
2023-04-17T11:10:08.271Z,19.71
2023-04-17T11:11:13.194Z,19.73
2023-04-17T11:12:16.625Z,19.67
2023-04-17T11:13:19.458Z,19.65
2023-04-17T11:14:24.827Z,19.65
2023-04-17T11:15:31.740Z,19.66
2023-04-17T11:16:34.802Z,19.65
2023-04-17T11:17:41.477Z,19.50
2023-04-17T11:18:45.267Z,19.48
2023-04-17T11:19:49.182Z,19.53
2023-04-17T11:20:53.790Z,19.52
2023-04-17T11:22:02.662Z,19.50
2023-04-17T11:23:07.374Z,19.48
2023-04-17T11:24:10.388Z,19.45
2023-04-17T11:25:27.952Z,19.42
2023-04-17T11:26:30.825Z,19.42
2023-04-17T11:27:34.159Z,19.42
2023-04-17T11:28:40.581Z,19.41
2023-04-17T11:29:43.442Z,19.42
2023-04-17T11:30:46.361Z,19.48
2023-04-17T11:31:51.119Z,19.45
2023-04-17T11:32:54.856Z,19.45
2023-04-17T11:33:59.690Z,19.46
2023-04-17T11:35:02.916Z,19.48
2023-04-17T11:36:07.681Z,19.46
2023-04-17T11:37:15.209Z,19.42
2023-04-17T11:38:23.331Z,19.45
2023-04-17T11:39:29.256Z,19.33
2023-04-17T11:40:32.555Z,19.31
2023-04-17T11:41:39.583Z,19.21
2023-04-17T11:42:48.601Z,19.19
2023-04-17T11:43:53.271Z,19.21
2023-04-17T11:45:10.354Z,19.21
2023-04-17T11:46:13.714Z,19.18
2023-04-17T11:47:16.638Z,19.22
2023-04-17T11:48:26.018Z,19.21
2023-04-17T11:49:30.896Z,19.19
2023-04-17T11:50:34.386Z,19.22
2023-04-17T11:51:38.018Z,19.15
2023-04-17T11:52:40.994Z,19.18
2023-04-17T11:53:48.834Z,19.16
2023-04-17T11:54:58.774Z,19.12
2023-04-17T11:56:20.794Z,19.14
2023-04-17T11:57:23.814Z,19.10
2023-04-17T11:58:28.825Z,19.12
2023-04-17T11:59:34.656Z,19.15
2023-04-17T12:00:39.081Z,19.16
2023-04-17T12:01:53.248Z,19.10
2023-04-17T12:02:57.777Z,19.08
2023-04-17T12:04:01.038Z,19.07
2023-04-17T12:05:19.004Z,19.05
2023-04-17T12:06:22.259Z,19.04
2023-04-17T12:07:26.121Z,19.08
2023-04-17T12:08:30.338Z,19.11
2023-04-17T12:09:35.078Z,19.14
2023-04-17T12:10:45.961Z,19.15
2023-04-17T12:11:48.857Z,19.16
2023-04-17T12:12:51.793Z,19.19
2023-04-17T12:13:56.563Z,19.18
2023-04-17T12:15:00.703Z,19.19
2023-04-17T12:16:03.628Z,19.22
2023-04-17T12:17:06.674Z,19.23
2023-04-17T12:18:10.712Z,19.29
2023-04-17T12:19:17.800Z,19.32
2023-04-17T12:20:20.669Z,19.38
2023-04-17T12:21:25.202Z,19.39
2023-04-17T12:22:28.037Z,19.29
2023-04-17T12:23:30.865Z,19.33
2023-04-17T12:24:33.721Z,19.32
2023-04-17T12:25:36.696Z,19.31
2023-04-17T12:26:48.139Z,19.33
2023-04-17T12:27:51.092Z,19.33
2023-04-17T12:28:54.014Z,19.32
2023-04-17T12:29:56.840Z,19.33
2023-04-17T12:30:59.789Z,19.35
2023-04-17T12:32:02.800Z,19.38
2023-04-17T12:33:08.033Z,19.41
2023-04-17T12:34:11.242Z,19.42
2023-04-17T12:35:14.317Z,19.41
2023-04-17T12:36:17.201Z,19.41
2023-04-17T12:37:20.302Z,19.38
2023-04-17T12:38:24.697Z,19.39
2023-04-17T12:39:27.502Z,19.35
2023-04-17T12:40:30.439Z,19.36
2023-04-17T12:41:33.328Z,19.41
2023-04-17T12:42:42.690Z,19.39
2023-04-17T12:43:52.056Z,19.41
2023-04-17T12:44:54.916Z,19.42
2023-04-17T12:45:59.600Z,19.43
2023-04-17T12:47:02.544Z,19.43
2023-04-17T12:48:06.898Z,19.45
2023-04-17T12:49:10.380Z,19.49
2023-04-17T12:50:14.122Z,19.56
2023-04-17T12:51:17.042Z,19.62
2023-04-17T12:52:19.952Z,19.62
2023-04-17T12:53:23.086Z,19.66
2023-04-17T12:54:25.921Z,19.70
2023-04-17T12:55:28.774Z,19.70
2023-04-17T12:56:31.639Z,19.60
2023-04-17T12:57:36.252Z,19.63
2023-04-17T12:58:39.070Z,19.65
2023-04-17T12:59:41.977Z,19.65
2023-04-17T13:00:45.522Z,19.67
2023-04-17T13:01:48.579Z,19.69
2023-04-17T13:02:51.617Z,19.66
2023-04-17T13:03:54.926Z,19.69
2023-04-17T13:04:58.003Z,19.71
2023-04-17T13:06:00.848Z,19.71
2023-04-17T13:07:03.728Z,19.77
2023-04-17T13:08:07.015Z,19.77
2023-04-17T13:09:10.096Z,19.81
2023-04-17T13:10:13.134Z,19.79
2023-04-17T13:11:15.947Z,19.77
2023-04-17T13:12:18.932Z,19.77
2023-04-17T13:13:21.811Z,19.74
2023-04-17T13:14:24.728Z,19.81
2023-04-17T13:15:27.675Z,19.83
2023-04-17T13:16:31.230Z,19.90
2023-04-17T13:17:34.245Z,19.97
2023-04-17T13:18:37.335Z,20.03
2023-04-17T13:19:41.347Z,20.10
2023-04-17T13:20:44.266Z,20.10
2023-04-17T13:21:47.193Z,20.08
2023-04-17T13:22:50.112Z,20.14
2023-04-17T13:23:53.041Z,20.22
2023-04-17T13:24:55.865Z,20.21
2023-04-17T13:25:58.749Z,20.21
2023-04-17T13:27:02.294Z,20.22
2023-04-17T13:28:05.245Z,20.27
2023-04-17T13:29:08.668Z,20.31
2023-04-17T13:30:12.188Z,20.38
2023-04-17T13:31:15.444Z,20.42
2023-04-17T13:32:18.336Z,20.44
2023-04-17T13:33:21.181Z,20.52
2023-04-17T13:34:24.060Z,20.48
2023-04-17T13:35:26.933Z,20.47
2023-04-17T13:36:30.181Z,20.51
2023-04-17T13:37:33.236Z,20.52
2023-04-17T13:38:36.102Z,20.58
2023-04-17T13:39:39.324Z,20.56
2023-04-17T13:40:42.191Z,20.59
2023-04-17T13:41:45.079Z,20.58
2023-04-17T13:42:47.937Z,20.53
2023-04-17T13:43:50.861Z,20.55
2023-04-17T13:44:53.692Z,20.55
2023-04-17T13:45:58.111Z,20.55